createdAt,value
2018-11-23T00:00:22.957Z,40.53
2018-11-23T00:02:52.130Z,38.70
2018-11-23T00:05:21.122Z,41.95
2018-11-23T00:07:50.233Z,39.48
2018-11-23T00:10:20.168Z,40.52
2018-11-23T00:12:49.118Z,39.48
2018-11-23T00:15:19.057Z,38.70
2018-11-23T00:17:47.903Z,41.88
2018-11-23T00:20:21.855Z,38.98
2018-11-23T00:22:50.645Z,40.55
2018-11-23T00:25:20.551Z,40.05
2018-11-23T00:27:49.687Z,41.13
2018-11-23T00:30:20.060Z,39.92
2018-11-23T00:32:49.277Z,38.10
2018-11-23T00:35:20.662Z,40.60
2018-11-23T00:37:49.865Z,38.70
2018-11-23T00:40:23.708Z,38.30
2018-11-23T00:42:52.773Z,42.17
2018-11-23T00:45:21.726Z,40.67
2018-11-23T00:47:51.105Z,41.48
2018-11-23T00:50:21.038Z,43.05
2018-11-23T00:52:50.334Z,41.33
2018-11-23T00:55:20.022Z,43.13
2018-11-23T00:57:48.800Z,42.17
2018-11-23T01:00:24.030Z,45.10
2018-11-23T01:02:53.274Z,43.90
2018-11-23T01:05:22.091Z,46.55
2018-11-23T01:07:50.884Z,46.58
2018-11-23T01:10:20.861Z,45.95
2018-11-23T01:12:50.453Z,46.50
2018-11-23T01:15:19.256Z,44.42
2018-11-23T01:17:48.031Z,45.00
2018-11-23T01:20:18.289Z,44.55
2018-11-23T01:22:47.440Z,42.50
2018-11-23T01:25:17.394Z,43.70
2018-11-23T01:27:47.297Z,42.38
2018-11-23T01:30:20.386Z,44.67
2018-11-23T01:32:49.181Z,45.10
2018-11-23T01:35:17.966Z,42.55
2018-11-23T01:37:46.757Z,44.73
2018-11-23T01:40:24.314Z,45.50
2018-11-23T01:42:53.643Z,45.73
2018-11-23T01:45:22.454Z,47.20
2018-11-23T01:47:51.288Z,43.65
2018-11-23T01:50:21.441Z,44.23
2018-11-23T01:52:50.853Z,44.27
2018-11-23T01:55:20.584Z,43.00
2018-11-23T01:57:49.425Z,44.43
2018-11-23T02:00:25.625Z,42.10
2018-11-23T02:02:55.011Z,43.05
2018-11-23T02:05:23.840Z,43.20
2018-11-23T02:07:52.628Z,39.65
2018-11-23T02:10:21.393Z,40.30
2018-11-23T02:12:50.250Z,41.23
2018-11-23T02:15:20.117Z,42.53
2018-11-23T02:17:49.400Z,39.50
2018-11-23T02:20:19.190Z,43.03
2018-11-23T02:22:47.945Z,48.02
2018-11-23T02:25:16.712Z,46.75
2018-11-23T02:27:45.498Z,44.18
2018-11-23T02:30:16.538Z,46.50
2018-11-23T02:32:45.505Z,47.10
2018-11-23T02:35:14.999Z,44.55
2018-11-23T02:37:43.833Z,45.45
2018-11-23T02:40:13.849Z,42.83
2018-11-23T02:42:42.653Z,46.45
2018-11-23T02:45:16.465Z,43.10
2018-11-23T02:47:45.884Z,42.83
2018-11-23T02:50:14.703Z,41.53
2018-11-23T02:52:43.897Z,42.67
2018-11-23T02:55:13.924Z,41.60
2018-11-23T02:57:42.742Z,44.40
2018-11-23T03:00:15.066Z,41.08
2018-11-23T03:02:44.045Z,38.73
2018-11-23T03:05:14.808Z,41.87
2018-11-23T03:07:43.792Z,41.73
2018-11-23T03:10:13.737Z,41.47
2018-11-23T03:12:43.098Z,41.23
2018-11-23T03:15:13.955Z,42.75
2018-11-23T03:17:43.445Z,42.40
2018-11-23T03:20:14.602Z,43.23
2018-11-23T03:22:43.392Z,41.65
2018-11-23T03:25:12.611Z,45.73
2018-11-23T03:27:41.369Z,42.13
2018-11-23T03:30:12.381Z,42.90
2018-11-23T03:32:41.153Z,45.88
2018-11-23T03:35:09.970Z,45.10
2018-11-23T03:37:38.984Z,45.20
2018-11-23T03:40:07.767Z,43.35
2018-11-23T03:42:36.533Z,43.48
2018-11-23T03:45:06.647Z,44.73
2018-11-23T03:47:35.405Z,46.33
2018-11-23T03:50:04.308Z,46.73
2018-11-23T03:52:33.110Z,43.35
2018-11-23T03:55:01.905Z,45.63
2018-11-23T03:57:30.741Z,43.33
2018-11-23T03:59:59.556Z,45.08
2018-11-23T04:02:28.364Z,45.35
2018-11-23T04:04:57.613Z,45.65
2018-11-23T04:07:26.397Z,47.23
2018-11-23T04:09:55.293Z,45.90
2018-11-23T04:12:24.085Z,45.15
2018-11-23T04:14:52.867Z,46.90
2018-11-23T04:17:21.633Z,47.08
2018-11-23T04:19:50.459Z,48.68
2018-11-23T04:22:19.296Z,46.70
2018-11-23T04:24:48.036Z,49.85
2018-11-23T04:27:16.837Z,48.52
2018-11-23T04:29:45.610Z,42.50
2018-11-23T04:32:14.388Z,48.57
2018-11-23T04:34:43.155Z,45.63
2018-11-23T04:37:12.024Z,46.60
2018-11-23T04:39:40.818Z,47.50
2018-11-23T04:42:09.586Z,46.53
2018-11-23T04:44:38.433Z,47.25
2018-11-23T04:47:07.238Z,51.77
2018-11-23T04:49:36.059Z,47.17
2018-11-23T04:52:04.893Z,45.35
2018-11-23T04:54:33.704Z,46.65
2018-11-23T04:57:02.782Z,45.03
2018-11-23T04:59:32.109Z,47.00
2018-11-23T05:02:00.896Z,47.73
2018-11-23T05:04:29.702Z,47.83
2018-11-23T05:06:58.463Z,47.15
2018-11-23T05:09:27.220Z,45.33
2018-11-23T05:11:56.028Z,46.48
2018-11-23T05:14:24.813Z,45.43
2018-11-23T05:16:53.633Z,47.05
2018-11-23T05:19:22.421Z,43.80
2018-11-23T05:21:51.209Z,43.85
2018-11-23T05:24:19.992Z,47.83
2018-11-23T05:26:48.854Z,43.80
2018-11-23T05:29:17.633Z,47.67
2018-11-23T05:31:46.421Z,46.90
2018-11-23T05:34:15.197Z,47.20
2018-11-23T05:36:43.986Z,47.90
2018-11-23T05:39:12.770Z,53.20
2018-11-23T05:41:41.605Z,50.80
2018-11-23T05:44:10.409Z,52.88
2018-11-23T05:46:42.425Z,51.65
2018-11-23T05:49:11.346Z,48.87
2018-11-23T05:51:40.130Z,51.73
2018-11-23T05:54:08.912Z,47.10
2018-11-23T05:56:37.690Z,46.77
2018-11-23T05:59:06.467Z,49.48
2018-11-23T06:01:35.272Z,45.00
2018-11-23T06:04:04.106Z,48.40
2018-11-23T06:06:32.919Z,48.23
2018-11-23T06:09:01.677Z,47.88
2018-11-23T06:11:30.445Z,50.55
2018-11-23T06:13:59.308Z,49.38
2018-11-23T06:16:28.100Z,48.33
2018-11-23T06:18:56.877Z,50.58
2018-11-23T06:21:25.653Z,47.67
2018-11-23T06:23:54.753Z,48.48
2018-11-23T06:26:25.437Z,50.58
2018-11-23T06:28:54.197Z,50.28
2018-11-23T06:31:22.994Z,51.48
2018-11-23T06:33:51.773Z,50.20
2018-11-23T06:36:20.552Z,48.73
2018-11-23T06:38:49.311Z,54.70
2018-11-23T06:41:18.115Z,49.73
2018-11-23T06:43:47.408Z,51.90
2018-11-23T06:46:16.177Z,54.93
2018-11-23T06:48:44.961Z,50.12
2018-11-23T06:51:13.741Z,47.70
2018-11-23T06:53:42.567Z,50.63
2018-11-23T06:56:11.311Z,48.63
2018-11-23T06:58:40.143Z,51.20
2018-11-23T07:01:08.918Z,50.05
2018-11-23T07:03:37.685Z,49.27
2018-11-23T07:06:06.473Z,52.30
2018-11-23T07:08:35.266Z,50.57
2018-11-23T07:11:04.197Z,49.83
2018-11-23T07:13:33.438Z,49.20
2018-11-23T07:16:02.242Z,46.70
2018-11-23T07:18:30.993Z,51.75
2018-11-23T07:20:59.782Z,48.25
2018-11-23T07:23:28.569Z,48.47
2018-11-23T07:25:57.357Z,47.35
2018-11-23T07:28:26.158Z,49.50
2018-11-23T07:30:58.337Z,49.25
2018-11-23T07:33:23.723Z,52.15
2018-11-23T07:35:52.542Z,46.25
2018-11-23T07:38:21.338Z,45.00
2018-11-23T07:41:01.638Z,49.23
2018-11-23T07:43:30.456Z,46.53
2018-11-23T07:45:59.248Z,46.55
2018-11-23T07:48:28.061Z,49.55
2018-11-23T07:50:56.837Z,47.93
2018-11-23T07:53:25.644Z,48.87
2018-11-23T07:55:54.417Z,49.00
2018-11-23T07:58:23.178Z,46.08
2018-11-23T08:00:51.954Z,49.17
2018-11-23T08:03:20.940Z,45.20
2018-11-23T08:05:49.698Z,46.00
2018-11-23T08:08:18.500Z,42.05
2018-11-23T08:10:46.534Z,42.13
2018-11-23T08:13:15.361Z,41.13
2018-11-23T08:15:44.147Z,39.53
2018-11-23T08:18:12.922Z,38.45
2018-11-23T08:20:41.757Z,39.53
2018-11-23T08:23:10.525Z,37.63
2018-11-23T08:25:39.344Z,37.63
2018-11-23T08:28:08.127Z,38.38
2018-11-23T08:30:36.942Z,35.47
2018-11-23T08:33:05.728Z,37.15
2018-11-23T08:35:34.530Z,37.60
2018-11-23T08:38:03.306Z,37.13
2018-11-23T08:40:32.067Z,38.85
2018-11-23T08:43:00.881Z,41.00
2018-11-23T08:45:29.688Z,40.98
2018-11-23T08:47:58.487Z,40.30
2018-11-23T08:50:28.725Z,39.48
2018-11-23T08:52:57.508Z,36.33
2018-11-23T08:55:26.721Z,37.40
2018-11-23T08:57:55.531Z,34.53
2018-11-23T09:00:26.324Z,36.10
2018-11-23T09:02:56.662Z,36.15
2018-11-23T09:05:25.454Z,37.25
2018-11-23T09:07:55.314Z,36.63
2018-11-23T09:10:26.526Z,33.48
2018-11-23T09:12:57.843Z,33.08
2018-11-23T09:15:26.612Z,34.15
2018-11-23T09:17:55.382Z,31.05
2018-11-23T09:20:24.191Z,32.03
2018-11-23T09:22:52.986Z,31.03
2018-11-23T09:25:22.632Z,31.60
2018-11-23T09:27:51.433Z,29.50
2018-11-23T09:30:22.597Z,31.05
2018-11-23T09:32:52.266Z,32.20
2018-11-23T09:35:21.088Z,30.10
2018-11-23T09:37:50.144Z,32.35
2018-11-23T09:40:20.296Z,31.73
2018-11-23T09:42:49.468Z,29.20
2018-11-23T09:45:20.413Z,32.80
2018-11-23T09:47:50.405Z,31.70
2018-11-23T09:50:20.446Z,31.10
2018-11-23T09:52:50.444Z,32.20
2018-11-23T09:55:19.860Z,31.80
2018-11-23T09:57:48.633Z,30.72
2018-11-23T10:00:20.818Z,35.20
2018-11-23T10:02:50.604Z,31.52
2018-11-23T10:05:19.778Z,31.55
2018-11-23T10:07:50.133Z,31.90
2018-11-23T10:10:19.864Z,32.75
2018-11-23T10:12:48.637Z,29.65
2018-11-23T10:15:18.265Z,30.05
2018-11-23T10:17:47.030Z,30.62
2018-11-23T10:20:17.621Z,31.17
2018-11-23T10:22:46.697Z,29.75
2018-11-23T10:25:17.013Z,31.40
2018-11-23T10:27:46.099Z,31.62
2018-11-23T10:30:17.107Z,31.50
2018-11-23T10:32:46.942Z,30.55
2018-11-23T10:35:15.721Z,30.97
2018-11-23T10:37:45.473Z,31.12
2018-11-23T10:40:16.090Z,31.60
2018-11-23T10:42:45.160Z,31.70
2018-11-23T10:45:15.809Z,33.70
2018-11-23T10:47:44.790Z,29.77
2018-11-23T10:50:15.522Z,30.45
2018-11-23T10:52:44.533Z,30.65
2018-11-23T10:55:15.745Z,31.10
2018-11-23T10:57:44.568Z,31.65
2018-11-23T11:00:19.649Z,31.15
2018-11-23T11:03:54.737Z,28.20
2018-11-23T11:06:28.988Z,31.63
2018-11-23T11:08:57.781Z,31.42
2018-11-23T11:11:26.569Z,29.67
2018-11-23T11:13:55.349Z,29.80
2018-11-23T11:16:24.142Z,29.05
2018-11-23T11:18:53.293Z,29.02
2018-11-23T11:21:22.071Z,29.27
2018-11-23T11:23:50.875Z,29.15
2018-11-23T11:26:19.650Z,31.42
2018-11-23T11:28:48.427Z,30.25
2018-11-23T11:31:17.301Z,26.40
2018-11-23T11:33:46.116Z,28.05
2018-11-23T11:36:14.901Z,29.37
2018-11-23T11:38:43.681Z,27.15
2018-11-23T11:41:12.467Z,27.80
2018-11-23T11:43:41.225Z,25.77
2018-11-23T11:46:10.472Z,26.82
2018-11-23T11:48:39.344Z,27.95
2018-11-23T11:51:08.696Z,25.90
2018-11-23T11:53:37.475Z,26.07
2018-11-23T11:56:06.850Z,25.68
2018-11-23T11:58:35.672Z,25.23
2018-11-23T12:01:04.840Z,25.43
2018-11-23T12:03:33.651Z,26.60
2018-11-23T12:06:02.405Z,24.52
2018-11-23T12:08:31.166Z,25.60
2018-11-23T12:10:59.969Z,26.13
2018-11-23T12:13:28.805Z,26.10
2018-11-23T12:15:57.593Z,25.25
2018-11-23T12:18:26.372Z,25.27
2018-11-23T12:20:55.186Z,25.17
2018-11-23T12:23:23.965Z,24.20
2018-11-23T12:25:53.369Z,25.00
2018-11-23T12:28:22.143Z,26.57
2018-11-23T12:30:50.948Z,26.77
2018-11-23T12:33:19.720Z,26.33
2018-11-23T12:35:48.524Z,23.57
2018-11-23T12:38:17.406Z,24.57
2018-11-23T12:40:46.209Z,27.80
2018-11-23T12:43:15.038Z,23.38
2018-11-23T12:45:43.829Z,24.00
2018-11-23T12:48:12.618Z,24.35
2018-11-23T12:50:41.463Z,24.00
2018-11-23T12:53:10.265Z,23.25
2018-11-23T12:55:39.068Z,23.85
2018-11-23T12:58:08.621Z,24.43
2018-11-23T13:00:37.422Z,24.18
2018-11-23T13:03:06.282Z,25.02
2018-11-23T13:05:35.688Z,25.55
2018-11-23T13:08:06.038Z,25.10
2018-11-23T13:10:34.867Z,24.75
2018-11-23T13:13:04.005Z,25.15
2018-11-23T13:15:32.816Z,25.82
2018-11-23T13:18:02.029Z,26.43
2018-11-23T13:20:30.864Z,24.98
2018-11-23T13:22:59.684Z,21.77
2018-11-23T13:25:30.805Z,23.15
2018-11-23T13:27:59.836Z,22.52
2018-11-23T13:30:31.063Z,22.32
2018-11-23T13:32:59.874Z,25.37
2018-11-23T13:35:28.636Z,23.10
2018-11-23T13:37:57.397Z,24.85
2018-11-23T13:40:27.251Z,24.12
2018-11-23T13:42:57.045Z,24.92
2018-11-23T13:45:27.302Z,22.93
2018-11-23T13:47:56.158Z,21.15
2018-11-23T13:50:25.576Z,22.20
2018-11-23T13:52:55.995Z,20.25
2018-11-23T13:55:24.818Z,20.70
2018-11-23T13:57:53.565Z,21.30
2018-11-23T14:00:25.521Z,21.52
2018-11-23T14:02:54.285Z,22.70
2018-11-23T14:05:27.626Z,22.02
2018-11-23T14:07:57.942Z,22.15
2018-11-23T14:10:27.537Z,22.05
2018-11-23T14:12:56.358Z,22.17
2018-11-23T14:15:27.507Z,23.55
2018-11-23T14:17:57.290Z,20.32
2018-11-23T14:20:26.692Z,20.57
2018-11-23T14:22:55.697Z,22.67
2018-11-23T14:25:26.613Z,19.55
2018-11-23T14:27:55.900Z,19.77
2018-11-23T14:30:26.320Z,20.37
2018-11-23T14:32:55.310Z,21.48
2018-11-23T14:35:25.657Z,20.85
2018-11-23T14:37:56.660Z,21.68
2018-11-23T14:40:25.413Z,23.12
2018-11-23T14:42:54.738Z,19.45
2018-11-23T14:45:32.886Z,22.00
2018-11-23T14:48:03.024Z,19.82
2018-11-23T14:50:32.976Z,20.95
2018-11-23T14:53:01.740Z,21.12
2018-11-23T14:55:30.866Z,19.07
2018-11-23T14:57:59.944Z,20.92
2018-11-23T15:00:35.348Z,19.40
2018-11-23T15:03:05.189Z,18.50
2018-11-23T15:05:34.272Z,20.15
2018-11-23T15:08:03.049Z,19.75
2018-11-23T15:10:32.879Z,19.07
2018-11-23T15:13:02.492Z,20.27
2018-11-23T15:15:34.650Z,19.20
2018-11-23T15:18:03.421Z,19.85
2018-11-23T15:20:36.856Z,22.20
2018-11-23T15:23:08.297Z,19.95
2018-11-23T15:25:37.057Z,21.25
2018-11-23T15:28:06.461Z,22.02
2018-11-23T15:30:36.284Z,20.30
2018-11-23T15:33:05.634Z,21.33
2018-11-23T15:35:35.481Z,20.88
2018-11-23T15:38:09.999Z,22.80
2018-11-23T15:40:33.569Z,19.05
2018-11-23T15:43:04.949Z,20.62
2018-11-23T15:45:34.561Z,19.77
2018-11-23T15:48:03.731Z,20.40
2018-11-23T15:50:33.982Z,20.68
2018-11-23T15:53:02.824Z,21.45
2018-11-23T15:55:33.063Z,21.97
2018-11-23T15:58:03.292Z,21.20
2018-11-23T16:00:34.437Z,21.00
2018-11-23T16:03:03.282Z,22.10
2018-11-23T16:05:32.093Z,20.55
2018-11-23T16:08:02.470Z,18.95
2018-11-23T16:10:33.481Z,18.70
2018-11-23T16:13:10.726Z,19.45
2018-11-23T16:15:32.516Z,18.25
2018-11-23T16:18:01.820Z,21.02
2018-11-23T16:20:34.825Z,18.95
2018-11-23T16:23:08.070Z,20.25
2018-11-23T16:25:36.904Z,21.73
2018-11-23T16:28:06.846Z,19.82
2018-11-23T16:30:37.210Z,18.53
2018-11-23T16:33:07.741Z,22.10
2018-11-23T16:35:37.705Z,21.73
2018-11-23T16:38:08.478Z,22.45
2018-11-23T16:40:38.829Z,25.82
2018-11-23T16:43:09.204Z,21.80
2018-11-23T16:45:38.631Z,21.87
2018-11-23T16:48:08.556Z,21.70
2018-11-23T16:50:37.366Z,22.10
2018-11-23T16:53:06.364Z,19.77
2018-11-23T16:56:11.579Z,20.48
2018-11-23T16:58:40.504Z,20.62
2018-11-23T17:01:09.978Z,23.92
2018-11-23T17:03:39.312Z,21.87
2018-11-23T17:06:08.677Z,22.07
2018-11-23T17:08:39.901Z,22.45
2018-11-23T17:11:06.274Z,24.18
2018-11-23T17:13:35.071Z,23.25
2018-11-23T17:16:03.977Z,25.32
2018-11-23T17:18:32.792Z,22.80
2018-11-23T17:21:01.605Z,26.77
2018-11-23T17:23:30.398Z,21.95
2018-11-23T17:25:59.158Z,22.13
2018-11-23T17:28:27.909Z,23.57
2018-11-23T17:30:56.666Z,22.15
2018-11-23T17:33:25.434Z,21.33
2018-11-23T17:35:54.198Z,24.00
2018-11-23T17:38:22.957Z,25.17
2018-11-23T17:40:51.716Z,26.45
2018-11-23T17:43:20.499Z,29.12
2018-11-23T17:45:49.324Z,27.20
2018-11-23T17:48:18.100Z,28.05
2018-11-23T17:50:46.893Z,26.60
2018-11-23T17:53:15.727Z,25.52
2018-11-23T17:55:44.524Z,26.23
2018-11-23T17:58:13.409Z,28.83
2018-11-23T18:00:42.221Z,26.85
2018-11-23T18:03:10.993Z,25.80
2018-11-23T18:05:39.786Z,27.82
2018-11-23T18:08:08.539Z,27.22
2018-11-23T18:10:37.317Z,23.20
2018-11-23T18:13:06.133Z,24.60
2018-11-23T18:15:35.566Z,25.50
2018-11-23T18:18:05.293Z,25.40
2018-11-23T18:20:34.477Z,24.95
2018-11-23T18:23:03.889Z,24.27
2018-11-23T18:25:34.438Z,23.57
2018-11-23T18:28:03.241Z,25.02
2018-11-23T18:30:33.651Z,24.80
2018-11-23T18:33:03.610Z,23.50
2018-11-23T18:35:32.370Z,23.87
2018-11-23T18:38:01.149Z,21.30
2018-11-23T18:40:36.972Z,26.05
2018-11-23T18:42:58.841Z,24.32
2018-11-23T18:45:27.721Z,22.87
2018-11-23T18:47:56.618Z,25.05
2018-11-23T18:50:25.374Z,25.10
2018-11-23T18:52:54.183Z,21.23
2018-11-23T18:55:22.924Z,26.17
2018-11-23T18:57:51.837Z,25.20
2018-11-23T19:00:20.625Z,25.12
2018-11-23T19:02:49.389Z,24.55
2018-11-23T19:05:21.555Z,23.12
2018-11-23T19:07:50.348Z,26.10
2018-11-23T19:10:19.122Z,25.55
2018-11-23T19:12:47.887Z,29.13
2018-11-23T19:15:20.169Z,26.68
2018-11-23T19:17:46.385Z,25.85
2018-11-23T19:20:16.157Z,28.27
2018-11-23T19:22:46.158Z,25.48
2018-11-23T19:25:15.000Z,24.50
2018-11-23T19:27:43.856Z,25.77
2018-11-23T19:30:13.933Z,22.35
2018-11-23T19:32:49.289Z,21.93
2018-11-23T19:35:18.110Z,22.42
2018-11-23T19:37:46.944Z,22.98
2018-11-23T19:40:16.093Z,27.77
2018-11-23T19:42:45.368Z,24.23
2018-11-23T19:45:16.096Z,26.55
2018-11-23T19:47:44.953Z,23.12
2018-11-23T19:50:15.800Z,24.02
2018-11-23T19:52:44.589Z,25.33
2018-11-23T19:55:14.377Z,27.30
2018-11-23T19:57:43.192Z,22.65
2018-11-23T20:00:15.393Z,29.77
2018-11-23T20:02:44.328Z,28.30
2018-11-23T20:05:13.173Z,22.82
2018-11-23T20:07:41.981Z,25.45
2018-11-23T20:10:13.428Z,24.02
2018-11-23T20:12:42.593Z,26.70
2018-11-23T20:15:13.791Z,25.67
2018-11-23T20:17:42.651Z,24.23
2018-11-23T20:20:12.548Z,26.62
2018-11-23T20:22:41.354Z,25.65
2018-11-23T20:25:12.518Z,27.70
2018-11-23T20:27:41.332Z,25.55
2018-11-23T20:30:12.309Z,25.93
2018-11-23T20:32:41.083Z,29.30
2018-11-23T20:35:12.142Z,25.35
2018-11-23T20:37:41.033Z,26.75
2018-11-23T20:40:13.026Z,25.60
2018-11-23T20:42:41.805Z,25.27
2018-11-23T20:45:11.548Z,25.85
2018-11-23T20:47:40.451Z,29.12
2018-11-23T20:50:10.414Z,27.35
2018-11-23T20:52:39.258Z,28.10
2018-11-23T20:55:18.925Z,25.75
2018-11-23T20:57:47.725Z,26.02
2018-11-23T21:00:23.190Z,25.40
2018-11-23T21:02:52.585Z,26.00
2018-11-23T21:05:21.986Z,26.87
2018-11-23T21:07:51.840Z,25.93
2018-11-23T21:10:23.663Z,29.13
2018-11-23T21:12:52.681Z,28.05
2018-11-23T21:15:26.598Z,26.70
2018-11-23T21:17:56.036Z,26.55
2018-11-23T21:20:24.817Z,28.35
2018-11-23T21:22:53.596Z,25.92
2018-11-23T21:25:22.380Z,29.13
2018-11-23T21:27:51.682Z,25.35
2018-11-23T21:30:22.336Z,28.25
2018-11-23T21:32:51.825Z,26.77
2018-11-23T21:35:20.629Z,27.35
2018-11-23T21:37:49.451Z,27.30
2018-11-23T21:40:18.200Z,28.40
2018-11-23T21:42:46.992Z,27.73
2018-11-23T21:45:16.706Z,24.63
2018-11-23T21:47:45.524Z,27.52
2018-11-23T21:50:16.150Z,25.95
2018-11-23T21:52:44.934Z,27.65
2018-11-23T21:55:16.920Z,28.25
2018-11-23T21:57:45.690Z,27.60
2018-11-23T22:00:15.147Z,28.60
2018-11-23T22:02:44.028Z,30.08
2018-11-23T22:05:12.834Z,28.50
2018-11-23T22:07:41.653Z,27.93
2018-11-23T22:10:13.180Z,27.45
2018-11-23T22:12:41.967Z,28.43
2018-11-23T22:15:13.101Z,29.18
2018-11-23T22:17:41.897Z,29.90
2018-11-23T22:20:18.691Z,31.47
2018-11-23T22:22:47.470Z,28.92
2018-11-23T22:25:17.486Z,31.97
2018-11-23T22:27:46.370Z,30.77
2018-11-23T22:30:19.577Z,31.75
2018-11-23T22:32:48.339Z,29.67
2018-11-23T22:35:17.225Z,30.43
2018-11-23T22:37:45.989Z,29.00
2018-11-23T22:40:15.954Z,28.83
2018-11-23T22:42:46.850Z,30.08
2018-11-23T22:45:16.186Z,31.57
2018-11-23T22:47:45.034Z,31.10
2018-11-23T22:50:18.171Z,29.40
2018-11-23T22:52:47.787Z,29.85
2018-11-23T22:55:16.390Z,33.00
2018-11-23T22:57:45.178Z,32.80
2018-11-23T23:00:21.288Z,32.40
2018-11-23T23:02:50.368Z,30.00
2018-11-23T23:05:20.317Z,29.87
2018-11-23T23:07:49.101Z,30.70
2018-11-23T23:10:17.950Z,31.75
2018-11-23T23:12:46.749Z,29.85
2018-11-23T23:15:15.549Z,30.33
2018-11-23T23:17:44.471Z,28.10
2018-11-23T23:20:15.633Z,31.50
2018-11-23T23:22:44.389Z,29.90
2018-11-23T23:25:13.502Z,31.87
2018-11-23T23:27:42.301Z,30.65
2018-11-23T23:35:12.578Z,32.88
2018-11-23T23:37:41.621Z,31.15
2018-11-23T23:40:12.389Z,31.20
2018-11-23T23:42:41.191Z,27.20
2018-11-23T23:45:10.894Z,30.88
2018-11-23T23:47:39.714Z,31.57
2018-11-23T23:50:11.662Z,33.05
2018-11-23T23:52:40.469Z,31.62
2018-11-23T23:55:09.813Z,30.52
2018-11-23T23:57:39.312Z,33.20
